sensor_id;sensor_type;location;lat;lon;timestamp;P1;durP1;ratioP1;P2;durP2;ratioP2
31782;SDS011;18351;47.560;9.708;2022-12-18T00:01:28;89.80;;;35.42;;
31782;SDS011;18351;47.560;9.708;2022-12-18T00:03:55;83.60;;;35.60;;
31782;SDS011;18351;47.560;9.708;2022-12-18T00:06:23;83.45;;;34.70;;
31782;SDS011;18351;47.560;9.708;2022-12-18T00:08:56;87.57;;;35.75;;
31782;SDS011;18351;47.560;9.708;2022-12-18T00:11:32;87.22;;;34.45;;
31782;SDS011;18351;47.560;9.708;2022-12-18T00:13:58;92.60;;;36.88;;
31782;SDS011;18351;47.560;9.708;2022-12-18T00:16:28;91.00;;;35.28;;
31782;SDS011;18351;47.560;9.708;2022-12-18T00:19:00;107.18;;;41.63;;
31782;SDS011;18351;47.560;9.708;2022-12-18T00:21:27;131.80;;;47.58;;
31782;SDS011;18351;47.560;9.708;2022-12-18T00:23:54;120.50;;;44.03;;
31782;SDS011;18351;47.560;9.708;2022-12-18T00:26:39;87.35;;;37.67;;
31782;SDS011;18351;47.560;9.708;2022-12-18T00:29:09;94.18;;;36.45;;
31782;SDS011;18351;47.560;9.708;2022-12-18T00:31:39;93.35;;;35.55;;
31782;SDS011;18351;47.560;9.708;2022-12-18T00:34:11;87.43;;;35.08;;
31782;SDS011;18351;47.560;9.708;2022-12-18T00:36:39;92.65;;;37.08;;
31782;SDS011;18351;47.560;9.708;2022-12-18T00:39:06;85.88;;;35.10;;
31782;SDS011;18351;47.560;9.708;2022-12-18T00:41:33;87.22;;;35.97;;
31782;SDS011;18351;47.560;9.708;2022-12-18T00:44:18;111.22;;;44.50;;
31782;SDS011;18351;47.560;9.708;2022-12-18T00:46:44;93.45;;;37.53;;
31782;SDS011;18351;47.560;9.708;2022-12-18T00:49:11;89.43;;;35.03;;
31782;SDS011;18351;47.560;9.708;2022-12-18T00:51:41;84.22;;;33.75;;
31782;SDS011;18351;47.560;9.708;2022-12-18T00:54:07;89.18;;;35.88;;
31782;SDS011;18351;47.560;9.708;2022-12-18T00:56:34;89.63;;;34.47;;
31782;SDS011;18351;47.560;9.708;2022-12-18T00:59:02;82.03;;;33.78;;
31782;SDS011;18351;47.560;9.708;2022-12-18T01:01:31;89.53;;;37.00;;
31782;SDS011;18351;47.560;9.708;2022-12-18T01:04:02;96.20;;;34.58;;
31782;SDS011;18351;47.560;9.708;2022-12-18T01:06:31;84.30;;;34.83;;
31782;SDS011;18351;47.560;9.708;2022-12-18T01:08:57;85.78;;;33.88;;
31782;SDS011;18351;47.560;9.708;2022-12-18T01:11:23;82.15;;;34.92;;
31782;SDS011;18351;47.560;9.708;2022-12-18T01:13:51;87.22;;;36.03;;
31782;SDS011;18351;47.560;9.708;2022-12-18T01:16:20;88.68;;;34.97;;
31782;SDS011;18351;47.560;9.708;2022-12-18T01:18:46;95.05;;;36.03;;
31782;SDS011;18351;47.560;9.708;2022-12-18T01:21:14;85.38;;;35.42;;
31782;SDS011;18351;47.560;9.708;2022-12-18T01:23:41;93.75;;;34.85;;
31782;SDS011;18351;47.560;9.708;2022-12-18T01:26:10;93.80;;;35.90;;
31782;SDS011;18351;47.560;9.708;2022-12-18T01:28:40;89.60;;;35.33;;
31782;SDS011;18351;47.560;9.708;2022-12-18T01:31:10;87.28;;;35.83;;
31782;SDS011;18351;47.560;9.708;2022-12-18T01:33:36;88.93;;;36.28;;
31782;SDS011;18351;47.560;9.708;2022-12-18T01:36:13;90.90;;;35.70;;
31782;SDS011;18351;47.560;9.708;2022-12-18T01:38:47;87.13;;;34.97;;
31782;SDS011;18351;47.560;9.708;2022-12-18T01:41:15;89.22;;;35.72;;
31782;SDS011;18351;47.560;9.708;2022-12-18T01:43:45;81.45;;;33.55;;
31782;SDS011;18351;47.560;9.708;2022-12-18T01:46:13;90.68;;;34.92;;
31782;SDS011;18351;47.560;9.708;2022-12-18T01:48:40;84.72;;;33.35;;
31782;SDS011;18351;47.560;9.708;2022-12-18T01:51:07;86.95;;;33.72;;
31782;SDS011;18351;47.560;9.708;2022-12-18T01:53:34;88.10;;;35.28;;
31782;SDS011;18351;47.560;9.708;2022-12-18T01:56:02;83.70;;;34.08;;
31782;SDS011;18351;47.560;9.708;2022-12-18T02:01:15;90.32;;;36.00;;
31782;SDS011;18351;47.560;9.708;2022-12-18T02:03:42;91.43;;;34.58;;
31782;SDS011;18351;47.560;9.708;2022-12-18T02:08:45;84.10;;;35.05;;
31782;SDS011;18351;47.560;9.708;2022-12-18T02:11:49;92.13;;;36.00;;
31782;SDS011;18351;47.560;9.708;2022-12-18T02:17:00;90.47;;;34.33;;
31782;SDS011;18351;47.560;9.708;2022-12-18T02:19:53;94.70;;;36.45;;
31782;SDS011;18351;47.560;9.708;2022-12-18T02:27:45;91.90;;;33.97;;
31782;SDS011;18351;47.560;9.708;2022-12-18T02:30:13;93.18;;;35.25;;
31782;SDS011;18351;47.560;9.708;2022-12-18T02:32:41;84.93;;;34.83;;
31782;SDS011;18351;47.560;9.708;2022-12-18T02:35:14;88.22;;;35.13;;
31782;SDS011;18351;47.560;9.708;2022-12-18T02:37:43;86.40;;;35.22;;
31782;SDS011;18351;47.560;9.708;2022-12-18T02:40:11;91.07;;;35.90;;
31782;SDS011;18351;47.560;9.708;2022-12-18T02:42:38;85.32;;;34.33;;
31782;SDS011;18351;47.560;9.708;2022-12-18T02:45:04;86.15;;;33.75;;
31782;SDS011;18351;47.560;9.708;2022-12-18T02:47:31;82.55;;;33.53;;
31782;SDS011;18351;47.560;9.708;2022-12-18T02:55:36;83.93;;;32.25;;
31782;SDS011;18351;47.560;9.708;2022-12-18T03:04:12;84.93;;;33.05;;
31782;SDS011;18351;47.560;9.708;2022-12-18T03:06:44;88.63;;;33.67;;
31782;SDS011;18351;47.560;9.708;2022-12-18T03:12:17;82.18;;;32.45;;
31782;SDS011;18351;47.560;9.708;2022-12-18T03:14:49;92.82;;;35.60;;
31782;SDS011;18351;47.560;9.708;2022-12-18T03:17:38;82.18;;;31.90;;
31782;SDS011;18351;47.560;9.708;2022-12-18T03:20:10;82.78;;;34.85;;
31782;SDS011;18351;47.560;9.708;2022-12-18T03:22:42;85.28;;;32.83;;
31782;SDS011;18351;47.560;9.708;2022-12-18T03:25:11;84.75;;;35.97;;
31782;SDS011;18351;47.560;9.708;2022-12-18T03:27:40;79.00;;;33.80;;
31782;SDS011;18351;47.560;9.708;2022-12-18T03:30:11;86.00;;;33.08;;
31782;SDS011;18351;47.560;9.708;2022-12-18T03:32:40;84.05;;;34.00;;
31782;SDS011;18351;47.560;9.708;2022-12-18T03:35:14;84.88;;;33.35;;
31782;SDS011;18351;47.560;9.708;2022-12-18T03:37:44;76.80;;;31.10;;
31782;SDS011;18351;47.560;9.708;2022-12-18T03:40:10;94.00;;;35.60;;
31782;SDS011;18351;47.560;9.708;2022-12-18T03:42:52;90.82;;;34.28;;
31782;SDS011;18351;47.560;9.708;2022-12-18T03:45:25;84.28;;;33.10;;
31782;SDS011;18351;47.560;9.708;2022-12-18T03:48:16;86.25;;;35.35;;
31782;SDS011;18351;47.560;9.708;2022-12-18T03:51:02;88.72;;;34.58;;
31782;SDS011;18351;47.560;9.708;2022-12-18T03:53:38;93.18;;;35.20;;
31782;SDS011;18351;47.560;9.708;2022-12-18T03:56:05;100.40;;;36.10;;
31782;SDS011;18351;47.560;9.708;2022-12-18T03:58:33;93.07;;;34.35;;
31782;SDS011;18351;47.560;9.708;2022-12-18T04:01:02;92.00;;;34.28;;
31782;SDS011;18351;47.560;9.708;2022-12-18T04:03:49;95.32;;;36.28;;
31782;SDS011;18351;47.560;9.708;2022-12-18T04:06:15;110.05;;;39.35;;
31782;SDS011;18351;47.560;9.708;2022-12-18T04:08:42;118.90;;;41.10;;
31782;SDS011;18351;47.560;9.708;2022-12-18T04:11:08;111.72;;;39.10;;
31782;SDS011;18351;47.560;9.708;2022-12-18T04:13:36;104.53;;;36.85;;
31782;SDS011;18351;47.560;9.708;2022-12-18T04:16:02;115.80;;;38.83;;
31782;SDS011;18351;47.560;9.708;2022-12-18T04:18:29;97.78;;;35.85;;
31782;SDS011;18351;47.560;9.708;2022-12-18T04:20:55;104.07;;;36.63;;
31782;SDS011;18351;47.560;9.708;2022-12-18T04:23:21;103.72;;;35.75;;
31782;SDS011;18351;47.560;9.708;2022-12-18T04:25:46;104.57;;;36.97;;
31782;SDS011;18351;47.560;9.708;2022-12-18T04:28:12;110.95;;;35.38;;
31782;SDS011;18351;47.560;9.708;2022-12-18T04:30:38;99.18;;;35.08;;
31782;SDS011;18351;47.560;9.708;2022-12-18T04:33:03;99.38;;;35.08;;
31782;SDS011;18351;47.560;9.708;2022-12-18T04:35:32;82.97;;;32.05;;
31782;SDS011;18351;47.560;9.708;2022-12-18T04:37:58;89.28;;;31.55;;
31782;SDS011;18351;47.560;9.708;2022-12-18T04:40:24;81.18;;;30.75;;
31782;SDS011;18351;47.560;9.708;2022-12-18T04:42:49;78.45;;;30.73;;
31782;SDS011;18351;47.560;9.708;2022-12-18T04:45:15;85.53;;;32.85;;
31782;SDS011;18351;47.560;9.708;2022-12-18T04:47:40;85.90;;;32.38;;
31782;SDS011;18351;47.560;9.708;2022-12-18T04:50:06;86.78;;;31.73;;
31782;SDS011;18351;47.560;9.708;2022-12-18T04:52:32;95.43;;;34.05;;
31782;SDS011;18351;47.560;9.708;2022-12-18T04:54:58;81.05;;;30.67;;
31782;SDS011;18351;47.560;9.708;2022-12-18T04:57:23;78.38;;;32.60;;
31782;SDS011;18351;47.560;9.708;2022-12-18T04:59:49;82.20;;;29.30;;
31782;SDS011;18351;47.560;9.708;2022-12-18T05:02:14;78.80;;;29.77;;
31782;SDS011;18351;47.560;9.708;2022-12-18T05:04:40;72.88;;;30.40;;
31782;SDS011;18351;47.560;9.708;2022-12-18T05:07:05;79.72;;;30.33;;
31782;SDS011;18351;47.560;9.708;2022-12-18T05:09:31;82.32;;;29.50;;
31782;SDS011;18351;47.560;9.708;2022-12-18T05:11:56;80.72;;;30.65;;
31782;SDS011;18351;47.560;9.708;2022-12-18T05:14:22;77.20;;;31.00;;
31782;SDS011;18351;47.560;9.708;2022-12-18T05:16:48;75.22;;;29.42;;
31782;SDS011;18351;47.560;9.708;2022-12-18T05:19:13;79.00;;;30.90;;
31782;SDS011;18351;47.560;9.708;2022-12-18T05:21:39;74.32;;;29.13;;
31782;SDS011;18351;47.560;9.708;2022-12-18T05:24:05;78.28;;;29.85;;
31782;SDS011;18351;47.560;9.708;2022-12-18T05:26:30;80.20;;;29.85;;
31782;SDS011;18351;47.560;9.708;2022-12-18T05:28:56;77.78;;;29.45;;
31782;SDS011;18351;47.560;9.708;2022-12-18T05:31:22;67.65;;;27.60;;
31782;SDS011;18351;47.560;9.708;2022-12-18T05:33:47;66.32;;;27.27;;
31782;SDS011;18351;47.560;9.708;2022-12-18T05:36:13;69.78;;;28.50;;
31782;SDS011;18351;47.560;9.708;2022-12-18T05:38:38;68.72;;;27.42;;
31782;SDS011;18351;47.560;9.708;2022-12-18T05:41:04;69.68;;;29.48;;
31782;SDS011;18351;47.560;9.708;2022-12-18T05:43:31;69.53;;;29.98;;
31782;SDS011;18351;47.560;9.708;2022-12-18T05:46:03;78.97;;;31.45;;
31782;SDS011;18351;47.560;9.708;2022-12-18T05:48:35;70.85;;;28.90;;
31782;SDS011;18351;47.560;9.708;2022-12-18T05:51:07;81.68;;;31.13;;
31782;SDS011;18351;47.560;9.708;2022-12-18T05:53:34;73.70;;;28.92;;
31782;SDS011;18351;47.560;9.708;2022-12-18T05:56:05;75.30;;;28.65;;
31782;SDS011;18351;47.560;9.708;2022-12-18T05:58:32;74.03;;;29.77;;
31782;SDS011;18351;47.560;9.708;2022-12-18T06:01:05;72.38;;;27.75;;
31782;SDS011;18351;47.560;9.708;2022-12-18T06:03:34;71.18;;;28.08;;
31782;SDS011;18351;47.560;9.708;2022-12-18T06:06:00;66.78;;;27.38;;
31782;SDS011;18351;47.560;9.708;2022-12-18T06:08:26;69.43;;;28.00;;
31782;SDS011;18351;47.560;9.708;2022-12-18T06:10:52;67.15;;;28.13;;
31782;SDS011;18351;47.560;9.708;2022-12-18T06:13:18;72.85;;;29.38;;
31782;SDS011;18351;47.560;9.708;2022-12-18T06:15:44;83.40;;;32.10;;
31782;SDS011;18351;47.560;9.708;2022-12-18T06:18:10;87.68;;;32.58;;
31782;SDS011;18351;47.560;9.708;2022-12-18T06:20:36;84.45;;;29.45;;
31782;SDS011;18351;47.560;9.708;2022-12-18T06:23:04;76.40;;;31.33;;
31782;SDS011;18351;47.560;9.708;2022-12-18T06:25:30;89.55;;;35.28;;
31782;SDS011;18351;47.560;9.708;2022-12-18T06:27:57;89.35;;;32.78;;
31782;SDS011;18351;47.560;9.708;2022-12-18T06:30:22;95.05;;;32.20;;
31782;SDS011;18351;47.560;9.708;2022-12-18T06:32:48;91.70;;;32.83;;
31782;SDS011;18351;47.560;9.708;2022-12-18T06:35:14;79.20;;;32.70;;
31782;SDS011;18351;47.560;9.708;2022-12-18T06:37:40;99.70;;;37.25;;
31782;SDS011;18351;47.560;9.708;2022-12-18T06:40:06;92.43;;;38.30;;
31782;SDS011;18351;47.560;9.708;2022-12-18T06:42:31;95.25;;;37.10;;
31782;SDS011;18351;47.560;9.708;2022-12-18T06:44:57;96.57;;;33.80;;
31782;SDS011;18351;47.560;9.708;2022-12-18T06:47:23;98.75;;;34.20;;
31782;SDS011;18351;47.560;9.708;2022-12-18T06:49:48;96.57;;;36.15;;
31782;SDS011;18351;47.560;9.708;2022-12-18T06:52:14;94.63;;;35.78;;
31782;SDS011;18351;47.560;9.708;2022-12-18T06:54:40;99.47;;;33.28;;
31782;SDS011;18351;47.560;9.708;2022-12-18T06:57:06;88.07;;;34.40;;
31782;SDS011;18351;47.560;9.708;2022-12-18T06:59:32;98.88;;;42.22;;
31782;SDS011;18351;47.560;9.708;2022-12-18T07:01:57;101.63;;;36.90;;
31782;SDS011;18351;47.560;9.708;2022-12-18T07:04:27;89.68;;;32.28;;
31782;SDS011;18351;47.560;9.708;2022-12-18T07:06:56;90.07;;;33.35;;
31782;SDS011;18351;47.560;9.708;2022-12-18T07:09:22;88.80;;;34.83;;
31782;SDS011;18351;47.560;9.708;2022-12-18T07:11:48;81.68;;;30.63;;
31782;SDS011;18351;47.560;9.708;2022-12-18T07:14:13;94.85;;;34.35;;
31782;SDS011;18351;47.560;9.708;2022-12-18T07:16:39;88.40;;;31.10;;
31782;SDS011;18351;47.560;9.708;2022-12-18T07:19:05;79.20;;;32.80;;
31782;SDS011;18351;47.560;9.708;2022-12-18T07:21:31;82.57;;;33.80;;
31782;SDS011;18351;47.560;9.708;2022-12-18T07:23:56;87.30;;;34.78;;
31782;SDS011;18351;47.560;9.708;2022-12-18T07:26:22;83.03;;;31.65;;
31782;SDS011;18351;47.560;9.708;2022-12-18T07:28:48;78.53;;;30.48;;
31782;SDS011;18351;47.560;9.708;2022-12-18T07:31:15;78.00;;;31.67;;
31782;SDS011;18351;47.560;9.708;2022-12-18T07:33:43;86.25;;;33.28;;
31782;SDS011;18351;47.560;9.708;2022-12-18T07:36:10;89.35;;;32.55;;
31782;SDS011;18351;47.560;9.708;2022-12-18T07:38:36;84.90;;;32.00;;
31782;SDS011;18351;47.560;9.708;2022-12-18T07:41:10;84.95;;;32.22;;
31782;SDS011;18351;47.560;9.708;2022-12-18T07:43:37;85.45;;;31.38;;
31782;SDS011;18351;47.560;9.708;2022-12-18T07:46:04;88.45;;;32.15;;
31782;SDS011;18351;47.560;9.708;2022-12-18T07:48:30;88.10;;;33.60;;
31782;SDS011;18351;47.560;9.708;2022-12-18T07:50:59;84.07;;;31.52;;
31782;SDS011;18351;47.560;9.708;2022-12-18T07:53:30;79.00;;;32.03;;
31782;SDS011;18351;47.560;9.708;2022-12-18T07:55:57;81.82;;;30.95;;
31782;SDS011;18351;47.560;9.708;2022-12-18T07:58:24;80.88;;;32.78;;
31782;SDS011;18351;47.560;9.708;2022-12-18T08:00:49;72.50;;;30.58;;
31782;SDS011;18351;47.560;9.708;2022-12-18T08:03:15;75.38;;;29.10;;
31782;SDS011;18351;47.560;9.708;2022-12-18T08:05:41;77.45;;;29.80;;
31782;SDS011;18351;47.560;9.708;2022-12-18T08:08:06;78.38;;;30.80;;
31782;SDS011;18351;47.560;9.708;2022-12-18T08:10:32;77.25;;;27.90;;
31782;SDS011;18351;47.560;9.708;2022-12-18T08:12:58;66.68;;;29.17;;
31782;SDS011;18351;47.560;9.708;2022-12-18T08:15:23;74.05;;;28.98;;
31782;SDS011;18351;47.560;9.708;2022-12-18T08:17:49;86.38;;;33.75;;
31782;SDS011;18351;47.560;9.708;2022-12-18T08:20:14;75.78;;;32.25;;
31782;SDS011;18351;47.560;9.708;2022-12-18T08:22:41;77.32;;;30.33;;
31782;SDS011;18351;47.560;9.708;2022-12-18T08:25:07;75.10;;;28.83;;
31782;SDS011;18351;47.560;9.708;2022-12-18T08:27:33;75.32;;;29.90;;
31782;SDS011;18351;47.560;9.708;2022-12-18T08:29:59;82.93;;;27.70;;
31782;SDS011;18351;47.560;9.708;2022-12-18T08:32:25;76.68;;;30.00;;
31782;SDS011;18351;47.560;9.708;2022-12-18T08:34:52;74.07;;;28.95;;
31782;SDS011;18351;47.560;9.708;2022-12-18T08:37:17;68.38;;;26.70;;
31782;SDS011;18351;47.560;9.708;2022-12-18T08:39:43;76.70;;;27.92;;
31782;SDS011;18351;47.560;9.708;2022-12-18T08:42:09;71.35;;;27.65;;
31782;SDS011;18351;47.560;9.708;2022-12-18T08:44:53;71.53;;;28.88;;
31782;SDS011;18351;47.560;9.708;2022-12-18T08:47:19;78.95;;;30.08;;
31782;SDS011;18351;47.560;9.708;2022-12-18T08:49:45;68.80;;;27.80;;
31782;SDS011;18351;47.560;9.708;2022-12-18T08:52:10;78.57;;;29.15;;
31782;SDS011;18351;47.560;9.708;2022-12-18T08:54:36;81.95;;;32.63;;
31782;SDS011;18351;47.560;9.708;2022-12-18T08:57:01;80.63;;;33.13;;
31782;SDS011;18351;47.560;9.708;2022-12-18T08:59:28;76.10;;;31.15;;
31782;SDS011;18351;47.560;9.708;2022-12-18T09:01:54;85.25;;;31.45;;
31782;SDS011;18351;47.560;9.708;2022-12-18T09:04:20;86.88;;;32.83;;
31782;SDS011;18351;47.560;9.708;2022-12-18T09:06:46;74.85;;;30.23;;
31782;SDS011;18351;47.560;9.708;2022-12-18T09:09:12;71.82;;;28.73;;
31782;SDS011;18351;47.560;9.708;2022-12-18T09:11:38;66.53;;;27.95;;
31782;SDS011;18351;47.560;9.708;2022-12-18T09:14:03;73.85;;;28.05;;
31782;SDS011;18351;47.560;9.708;2022-12-18T09:16:29;69.95;;;27.30;;
31782;SDS011;18351;47.560;9.708;2022-12-18T09:18:56;74.90;;;28.17;;
31782;SDS011;18351;47.560;9.708;2022-12-18T09:21:27;70.38;;;29.35;;
31782;SDS011;18351;47.560;9.708;2022-12-18T09:23:55;78.35;;;29.48;;
31782;SDS011;18351;47.560;9.708;2022-12-18T09:26:21;69.55;;;28.00;;
31782;SDS011;18351;47.560;9.708;2022-12-18T09:28:47;73.55;;;30.00;;
31782;SDS011;18351;47.560;9.708;2022-12-18T09:31:14;70.53;;;28.15;;
31782;SDS011;18351;47.560;9.708;2022-12-18T09:33:41;64.90;;;26.60;;
31782;SDS011;18351;47.560;9.708;2022-12-18T09:36:07;63.15;;;25.60;;
31782;SDS011;18351;47.560;9.708;2022-12-18T09:38:35;70.28;;;28.33;;
31782;SDS011;18351;47.560;9.708;2022-12-18T09:41:04;73.45;;;28.63;;
31782;SDS011;18351;47.560;9.708;2022-12-18T09:43:37;66.10;;;26.92;;
31782;SDS011;18351;47.560;9.708;2022-12-18T09:46:23;52.10;;;22.10;;
31782;SDS011;18351;47.560;9.708;2022-12-18T09:48:52;63.50;;;26.15;;
31782;SDS011;18351;47.560;9.708;2022-12-18T09:51:22;61.60;;;26.98;;
31782;SDS011;18351;47.560;9.708;2022-12-18T09:53:58;71.47;;;28.02;;
31782;SDS011;18351;47.560;9.708;2022-12-18T09:56:28;61.13;;;26.00;;
31782;SDS011;18351;47.560;9.708;2022-12-18T09:59:02;64.20;;;26.27;;
31782;SDS011;18351;47.560;9.708;2022-12-18T10:01:29;63.63;;;24.83;;
31782;SDS011;18351;47.560;9.708;2022-12-18T10:03:56;65.47;;;25.27;;
31782;SDS011;18351;47.560;9.708;2022-12-18T10:06:24;61.47;;;23.42;;
31782;SDS011;18351;47.560;9.708;2022-12-18T10:09:09;56.65;;;24.42;;
31782;SDS011;18351;47.560;9.708;2022-12-18T10:12:42;61.08;;;24.15;;
31782;SDS011;18351;47.560;9.708;2022-12-18T10:25:41;62.65;;;26.55;;
31782;SDS011;18351;47.560;9.708;2022-12-18T10:28:24;66.22;;;26.08;;
31782;SDS011;18351;47.560;9.708;2022-12-18T10:30:51;62.65;;;24.63;;
31782;SDS011;18351;47.560;9.708;2022-12-18T10:33:21;59.70;;;25.45;;
31782;SDS011;18351;47.560;9.708;2022-12-18T10:35:49;62.28;;;26.90;;
31782;SDS011;18351;47.560;9.708;2022-12-18T10:40:50;61.97;;;24.10;;
31782;SDS011;18351;47.560;9.708;2022-12-18T10:43:20;65.55;;;26.05;;
31782;SDS011;18351;47.560;9.708;2022-12-18T10:45:57;61.83;;;26.05;;
31782;SDS011;18351;47.560;9.708;2022-12-18T10:48:24;64.38;;;26.10;;
31782;SDS011;18351;47.560;9.708;2022-12-18T10:50:50;67.07;;;26.42;;
31782;SDS011;18351;47.560;9.708;2022-12-18T10:53:23;65.40;;;26.48;;
31782;SDS011;18351;47.560;9.708;2022-12-18T10:55:54;63.30;;;26.08;;
31782;SDS011;18351;47.560;9.708;2022-12-18T11:01:05;51.80;;;23.60;;
31782;SDS011;18351;47.560;9.708;2022-12-18T11:06:01;58.70;;;26.35;;
31782;SDS011;18351;47.560;9.708;2022-12-18T11:08:28;59.15;;;26.55;;
31782;SDS011;18351;47.560;9.708;2022-12-18T11:10:53;67.82;;;27.42;;
31782;SDS011;18351;47.560;9.708;2022-12-18T11:13:20;68.53;;;29.42;;
31782;SDS011;18351;47.560;9.708;2022-12-18T11:15:48;61.65;;;27.02;;
31782;SDS011;18351;47.560;9.708;2022-12-18T11:18:27;63.20;;;28.13;;
31782;SDS011;18351;47.560;9.708;2022-12-18T11:21:16;75.28;;;29.52;;
31782;SDS011;18351;47.560;9.708;2022-12-18T11:23:51;67.90;;;27.63;;
31782;SDS011;18351;47.560;9.708;2022-12-18T11:26:18;66.50;;;28.60;;
31782;SDS011;18351;47.560;9.708;2022-12-18T11:28:47;66.90;;;26.88;;
31782;SDS011;18351;47.560;9.708;2022-12-18T11:33:43;79.28;;;32.20;;
31782;SDS011;18351;47.560;9.708;2022-12-18T11:36:28;67.25;;;28.98;;
31782;SDS011;18351;47.560;9.708;2022-12-18T11:38:58;72.88;;;30.30;;
31782;SDS011;18351;47.560;9.708;2022-12-18T11:41:32;75.90;;;30.10;;
31782;SDS011;18351;47.560;9.708;2022-12-18T11:44:28;79.80;;;29.52;;
31782;SDS011;18351;47.560;9.708;2022-12-18T11:47:01;74.20;;;30.17;;
31782;SDS011;18351;47.560;9.708;2022-12-18T11:49:34;77.50;;;30.85;;
31782;SDS011;18351;47.560;9.708;2022-12-18T11:54:32;84.95;;;34.15;;
31782;SDS011;18351;47.560;9.708;2022-12-18T12:02:41;77.57;;;30.92;;
31782;SDS011;18351;47.560;9.708;2022-12-18T12:08:38;91.10;;;38.10;;
31782;SDS011;18351;47.560;9.708;2022-12-18T12:22:13;73.55;;;31.58;;
31782;SDS011;18351;47.560;9.708;2022-12-18T12:27:44;60.25;;;25.85;;
31782;SDS011;18351;47.560;9.708;2022-12-18T12:39:01;64.82;;;27.02;;
31782;SDS011;18351;47.560;9.708;2022-12-18T12:41:33;71.22;;;27.77;;
31782;SDS011;18351;47.560;9.708;2022-12-18T12:44:20;71.40;;;27.17;;
31782;SDS011;18351;47.560;9.708;2022-12-18T12:49:21;72.10;;;28.90;;
31782;SDS011;18351;47.560;9.708;2022-12-18T12:51:53;73.28;;;27.20;;
31782;SDS011;18351;47.560;9.708;2022-12-18T12:54:25;60.30;;;25.63;;
31782;SDS011;18351;47.560;9.708;2022-12-18T13:05:03;63.80;;;27.17;;
31782;SDS011;18351;47.560;9.708;2022-12-18T13:07:35;67.18;;;28.80;;
31782;SDS011;18351;47.560;9.708;2022-12-18T13:13:29;62.45;;;26.38;;
31782;SDS011;18351;47.560;9.708;2022-12-18T13:15:41;52.97;;;22.30;;
31782;SDS011;18351;47.560;9.708;2022-12-18T13:18:18;55.20;;;24.08;;
31782;SDS011;18351;47.560;9.708;2022-12-18T13:20:50;52.80;;;23.02;;
31782;SDS011;18351;47.560;9.708;2022-12-18T13:33:39;51.22;;;23.20;;
31782;SDS011;18351;47.560;9.708;2022-12-18T13:38:40;55.25;;;23.65;;
31782;SDS011;18351;47.560;9.708;2022-12-18T13:43:42;56.17;;;25.70;;
31782;SDS011;18351;47.560;9.708;2022-12-18T13:48:52;57.10;;;24.25;;
31782;SDS011;18351;47.560;9.708;2022-12-18T13:51:20;49.92;;;22.73;;
31782;SDS011;18351;47.560;9.708;2022-12-18T13:53:58;55.42;;;24.83;;
31782;SDS011;18351;47.560;9.708;2022-12-18T13:56:31;50.90;;;22.90;;
31782;SDS011;18351;47.560;9.708;2022-12-18T13:59:17;55.05;;;23.63;;
31782;SDS011;18351;47.560;9.708;2022-12-18T14:01:59;52.78;;;22.90;;
31782;SDS011;18351;47.560;9.708;2022-12-18T14:04:34;56.25;;;23.83;;
31782;SDS011;18351;47.560;9.708;2022-12-18T14:07:04;57.92;;;23.60;;
31782;SDS011;18351;47.560;9.708;2022-12-18T14:09:45;56.92;;;24.08;;
31782;SDS011;18351;47.560;9.708;2022-12-18T14:12:15;54.55;;;23.40;;
31782;SDS011;18351;47.560;9.708;2022-12-18T14:15:02;54.05;;;24.13;;
31782;SDS011;18351;47.560;9.708;2022-12-18T14:17:28;55.95;;;23.92;;
31782;SDS011;18351;47.560;9.708;2022-12-18T14:19:56;55.60;;;23.88;;
31782;SDS011;18351;47.560;9.708;2022-12-18T14:22:25;58.10;;;23.95;;
31782;SDS011;18351;47.560;9.708;2022-12-18T14:27:42;52.45;;;23.88;;
31782;SDS011;18351;47.560;9.708;2022-12-18T14:35:41;58.53;;;23.60;;
31782;SDS011;18351;47.560;9.708;2022-12-18T14:38:22;61.55;;;25.45;;
31782;SDS011;18351;47.560;9.708;2022-12-18T14:40:53;56.95;;;24.73;;
31782;SDS011;18351;47.560;9.708;2022-12-18T14:43:24;58.65;;;24.40;;
31782;SDS011;18351;47.560;9.708;2022-12-18T14:45:50;67.55;;;28.10;;
31782;SDS011;18351;47.560;9.708;2022-12-18T14:48:19;57.65;;;24.67;;
31782;SDS011;18351;47.560;9.708;2022-12-18T14:50:59;66.63;;;28.10;;
31782;SDS011;18351;47.560;9.708;2022-12-18T14:53:41;62.20;;;26.33;;
31782;SDS011;18351;47.560;9.708;2022-12-18T14:56:16;58.83;;;25.25;;
31782;SDS011;18351;47.560;9.708;2022-12-18T14:58:46;64.95;;;27.02;;
31782;SDS011;18351;47.560;9.708;2022-12-18T15:01:23;69.50;;;28.58;;
31782;SDS011;18351;47.560;9.708;2022-12-18T15:03:56;66.10;;;28.42;;
31782;SDS011;18351;47.560;9.708;2022-12-18T15:06:24;63.50;;;29.75;;
31782;SDS011;18351;47.560;9.708;2022-12-18T15:08:51;78.28;;;34.88;;
31782;SDS011;18351;47.560;9.708;2022-12-18T15:17:17;136.32;;;53.92;;
31782;SDS011;18351;47.560;9.708;2022-12-18T15:19:44;114.35;;;43.75;;
31782;SDS011;18351;47.560;9.708;2022-12-18T15:22:19;103.82;;;40.67;;
31782;SDS011;18351;47.560;9.708;2022-12-18T15:24:55;81.13;;;32.30;;
31782;SDS011;18351;47.560;9.708;2022-12-18T15:27:33;117.03;;;48.95;;
31782;SDS011;18351;47.560;9.708;2022-12-18T15:32:32;77.15;;;34.83;;
31782;SDS011;18351;47.560;9.708;2022-12-18T15:37:39;83.00;;;36.50;;
31782;SDS011;18351;47.560;9.708;2022-12-18T15:40:05;140.38;;;58.65;;
31782;SDS011;18351;47.560;9.708;2022-12-18T15:42:33;89.43;;;43.63;;
31782;SDS011;18351;47.560;9.708;2022-12-18T15:45:17;91.00;;;43.47;;
31782;SDS011;18351;47.560;9.708;2022-12-18T15:47:43;74.00;;;33.22;;
31782;SDS011;18351;47.560;9.708;2022-12-18T15:50:09;150.00;;;73.28;;
31782;SDS011;18351;47.560;9.708;2022-12-18T15:52:45;128.13;;;58.30;;
31782;SDS011;18351;47.560;9.708;2022-12-18T15:55:12;84.53;;;36.90;;
31782;SDS011;18351;47.560;9.708;2022-12-18T15:57:58;84.28;;;33.55;;
31782;SDS011;18351;47.560;9.708;2022-12-18T16:00:24;73.97;;;31.52;;
31782;SDS011;18351;47.560;9.708;2022-12-18T16:02:50;71.35;;;29.40;;
31782;SDS011;18351;47.560;9.708;2022-12-18T16:05:17;79.03;;;31.40;;
31782;SDS011;18351;47.560;9.708;2022-12-18T16:07:44;78.13;;;32.92;;
31782;SDS011;18351;47.560;9.708;2022-12-18T16:10:10;71.47;;;30.70;;
31782;SDS011;18351;47.560;9.708;2022-12-18T16:12:36;82.30;;;35.20;;
31782;SDS011;18351;47.560;9.708;2022-12-18T16:15:02;74.78;;;31.77;;
31782;SDS011;18351;47.560;9.708;2022-12-18T16:17:28;105.43;;;47.17;;
31782;SDS011;18351;47.560;9.708;2022-12-18T16:19:54;92.88;;;41.33;;
31782;SDS011;18351;47.560;9.708;2022-12-18T16:22:29;81.03;;;33.42;;
31782;SDS011;18351;47.560;9.708;2022-12-18T16:24:56;89.47;;;37.92;;
31782;SDS011;18351;47.560;9.708;2022-12-18T16:27:22;86.30;;;33.85;;
31782;SDS011;18351;47.560;9.708;2022-12-18T16:29:49;78.68;;;33.75;;
31782;SDS011;18351;47.560;9.708;2022-12-18T16:32:16;81.50;;;32.60;;
31782;SDS011;18351;47.560;9.708;2022-12-18T16:34:45;76.13;;;31.98;;
31782;SDS011;18351;47.560;9.708;2022-12-18T16:37:12;85.43;;;31.38;;
31782;SDS011;18351;47.560;9.708;2022-12-18T16:39:40;93.20;;;39.70;;
31782;SDS011;18351;47.560;9.708;2022-12-18T16:42:14;88.18;;;37.33;;
31782;SDS011;18351;47.560;9.708;2022-12-18T16:44:44;85.72;;;35.40;;
31782;SDS011;18351;47.560;9.708;2022-12-18T16:47:11;90.03;;;35.47;;
31782;SDS011;18351;47.560;9.708;2022-12-18T16:49:40;87.00;;;35.60;;